sensor_id;sensor_type;location;lat;lon;timestamp;P1;durP1;ratioP1;P2;durP2;ratioP2
25057;SDS011;13057;50.978;11.034;2022-07-24T00:00:16;5.40;;;3.83;;
25057;SDS011;13057;50.978;11.034;2022-07-24T00:02:42;5.60;;;4.07;;
25057;SDS011;13057;50.978;11.034;2022-07-24T00:05:08;10.57;;;3.60;;
25057;SDS011;13057;50.978;11.034;2022-07-24T00:07:35;4.82;;;3.70;;
25057;SDS011;13057;50.978;11.034;2022-07-24T00:10:03;5.85;;;3.67;;
25057;SDS011;13057;50.978;11.034;2022-07-24T00:12:30;5.15;;;3.78;;
25057;SDS011;13057;50.978;11.034;2022-07-24T00:14:56;6.80;;;4.68;;
25057;SDS011;13057;50.978;11.034;2022-07-24T00:17:22;8.88;;;4.38;;
25057;SDS011;13057;50.978;11.034;2022-07-24T00:19:48;7.55;;;3.75;;
25057;SDS011;13057;50.978;11.034;2022-07-24T00:22:13;6.65;;;4.00;;
25057;SDS011;13057;50.978;11.034;2022-07-24T00:24:40;7.05;;;4.40;;
25057;SDS011;13057;50.978;11.034;2022-07-24T00:27:06;6.75;;;4.28;;
25057;SDS011;13057;50.978;11.034;2022-07-24T00:29:32;4.90;;;3.83;;
25057;SDS011;13057;50.978;11.034;2022-07-24T00:31:58;4.85;;;3.78;;
25057;SDS011;13057;50.978;11.034;2022-07-24T00:34:24;6.43;;;4.10;;
25057;SDS011;13057;50.978;11.034;2022-07-24T00:36:49;4.68;;;3.75;;
25057;SDS011;13057;50.978;11.034;2022-07-24T00:39:15;5.03;;;3.47;;
25057;SDS011;13057;50.978;11.034;2022-07-24T00:41:41;7.20;;;4.07;;
25057;SDS011;13057;50.978;11.034;2022-07-24T00:44:08;6.63;;;3.80;;
25057;SDS011;13057;50.978;11.034;2022-07-24T00:46:37;5.57;;;3.78;;
25057;SDS011;13057;50.978;11.034;2022-07-24T00:49:04;5.40;;;3.35;;
25057;SDS011;13057;50.978;11.034;2022-07-24T00:51:31;6.88;;;3.55;;
25057;SDS011;13057;50.978;11.034;2022-07-24T00:53:59;4.45;;;3.75;;
25057;SDS011;13057;50.978;11.034;2022-07-24T00:56:25;5.13;;;3.67;;
25057;SDS011;13057;50.978;11.034;2022-07-24T00:58:53;4.47;;;3.53;;
25057;SDS011;13057;50.978;11.034;2022-07-24T01:01:19;4.93;;;3.72;;
25057;SDS011;13057;50.978;11.034;2022-07-24T01:03:45;14.10;;;5.82;;
25057;SDS011;13057;50.978;11.034;2022-07-24T01:06:11;7.28;;;4.03;;
25057;SDS011;13057;50.978;11.034;2022-07-24T01:08:37;5.10;;;4.28;;
25057;SDS011;13057;50.978;11.034;2022-07-24T01:11:04;5.20;;;4.03;;
25057;SDS011;13057;50.978;11.034;2022-07-24T01:13:31;10.98;;;4.38;;
25057;SDS011;13057;50.978;11.034;2022-07-24T01:15:57;5.22;;;3.90;;
25057;SDS011;13057;50.978;11.034;2022-07-24T01:18:23;5.40;;;4.20;;
25057;SDS011;13057;50.978;11.034;2022-07-24T01:20:50;8.68;;;4.43;;
25057;SDS011;13057;50.978;11.034;2022-07-24T01:23:16;5.47;;;4.22;;
25057;SDS011;13057;50.978;11.034;2022-07-24T01:25:42;8.15;;;4.95;;
25057;SDS011;13057;50.978;11.034;2022-07-24T01:28:08;7.35;;;4.53;;
25057;SDS011;13057;50.978;11.034;2022-07-24T01:30:34;5.30;;;3.75;;
25057;SDS011;13057;50.978;11.034;2022-07-24T01:33:00;4.25;;;3.80;;
25057;SDS011;13057;50.978;11.034;2022-07-24T01:35:26;5.72;;;3.72;;
25057;SDS011;13057;50.978;11.034;2022-07-24T01:37:52;7.15;;;3.75;;
25057;SDS011;13057;50.978;11.034;2022-07-24T01:40:19;5.55;;;3.25;;
25057;SDS011;13057;50.978;11.034;2022-07-24T01:42:45;6.90;;;3.92;;
25057;SDS011;13057;50.978;11.034;2022-07-24T01:45:11;12.95;;;6.22;;
25057;SDS011;13057;50.978;11.034;2022-07-24T01:47:38;9.10;;;4.68;;
25057;SDS011;13057;50.978;11.034;2022-07-24T01:50:04;10.77;;;5.82;;
25057;SDS011;13057;50.978;11.034;2022-07-24T01:52:30;10.60;;;5.88;;
25057;SDS011;13057;50.978;11.034;2022-07-24T01:54:56;9.52;;;4.93;;
25057;SDS011;13057;50.978;11.034;2022-07-24T01:57:22;4.82;;;3.55;;
25057;SDS011;13057;50.978;11.034;2022-07-24T01:59:48;7.13;;;3.78;;
25057;SDS011;13057;50.978;11.034;2022-07-24T02:02:13;5.32;;;3.67;;
25057;SDS011;13057;50.978;11.034;2022-07-24T02:04:39;6.15;;;3.70;;
25057;SDS011;13057;50.978;11.034;2022-07-24T02:07:05;7.53;;;3.50;;
25057;SDS011;13057;50.978;11.034;2022-07-24T02:09:31;7.03;;;3.17;;
25057;SDS011;13057;50.978;11.034;2022-07-24T02:11:57;4.70;;;3.90;;
25057;SDS011;13057;50.978;11.034;2022-07-24T02:14:22;7.57;;;4.18;;
25057;SDS011;13057;50.978;11.034;2022-07-24T02:16:49;6.05;;;3.90;;
25057;SDS011;13057;50.978;11.034;2022-07-24T02:19:14;4.50;;;3.60;;
25057;SDS011;13057;50.978;11.034;2022-07-24T02:21:40;5.05;;;3.90;;
25057;SDS011;13057;50.978;11.034;2022-07-24T02:24:06;4.72;;;3.63;;
25057;SDS011;13057;50.978;11.034;2022-07-24T02:26:33;5.18;;;3.72;;
25057;SDS011;13057;50.978;11.034;2022-07-24T02:28:58;6.32;;;4.18;;
25057;SDS011;13057;50.978;11.034;2022-07-24T02:31:24;4.78;;;3.60;;
25057;SDS011;13057;50.978;11.034;2022-07-24T02:33:50;4.30;;;3.50;;
25057;SDS011;13057;50.978;11.034;2022-07-24T02:36:17;5.88;;;3.42;;
25057;SDS011;13057;50.978;11.034;2022-07-24T02:38:42;5.95;;;3.95;;
25057;SDS011;13057;50.978;11.034;2022-07-24T02:41:08;7.95;;;3.63;;
25057;SDS011;13057;50.978;11.034;2022-07-24T02:43:34;5.20;;;3.70;;
25057;SDS011;13057;50.978;11.034;2022-07-24T02:46:00;5.28;;;3.85;;
25057;SDS011;13057;50.978;11.034;2022-07-24T02:48:26;4.32;;;3.45;;
25057;SDS011;13057;50.978;11.034;2022-07-24T02:50:52;4.85;;;3.95;;
25057;SDS011;13057;50.978;11.034;2022-07-24T02:53:18;4.75;;;3.25;;
25057;SDS011;13057;50.978;11.034;2022-07-24T02:55:44;5.50;;;3.75;;
25057;SDS011;13057;50.978;11.034;2022-07-24T02:58:09;6.15;;;3.38;;
25057;SDS011;13057;50.978;11.034;2022-07-24T03:00:35;6.72;;;3.50;;
25057;SDS011;13057;50.978;11.034;2022-07-24T03:03:01;6.18;;;3.42;;
25057;SDS011;13057;50.978;11.034;2022-07-24T03:05:27;6.68;;;3.33;;
25057;SDS011;13057;50.978;11.034;2022-07-24T03:07:53;5.57;;;3.42;;
25057;SDS011;13057;50.978;11.034;2022-07-24T03:10:19;5.55;;;3.58;;
25057;SDS011;13057;50.978;11.034;2022-07-24T03:12:45;5.68;;;3.40;;
25057;SDS011;13057;50.978;11.034;2022-07-24T03:15:12;5.53;;;3.78;;
25057;SDS011;13057;50.978;11.034;2022-07-24T03:17:38;6.97;;;3.65;;
25057;SDS011;13057;50.978;11.034;2022-07-24T03:20:05;8.82;;;3.63;;
25057;SDS011;13057;50.978;11.034;2022-07-24T03:22:31;9.68;;;4.05;;
25057;SDS011;13057;50.978;11.034;2022-07-24T03:24:57;5.93;;;3.83;;
25057;SDS011;13057;50.978;11.034;2022-07-24T03:27:23;8.15;;;3.85;;
25057;SDS011;13057;50.978;11.034;2022-07-24T03:29:49;6.40;;;3.60;;
25057;SDS011;13057;50.978;11.034;2022-07-24T03:32:15;3.97;;;3.58;;
25057;SDS011;13057;50.978;11.034;2022-07-24T03:34:41;6.78;;;3.25;;
25057;SDS011;13057;50.978;11.034;2022-07-24T03:37:06;4.55;;;3.33;;
25057;SDS011;13057;50.978;11.034;2022-07-24T03:39:32;4.15;;;3.50;;
25057;SDS011;13057;50.978;11.034;2022-07-24T03:41:58;5.15;;;3.50;;
25057;SDS011;13057;50.978;11.034;2022-07-24T03:44:24;4.80;;;3.10;;
25057;SDS011;13057;50.978;11.034;2022-07-24T03:46:50;6.32;;;3.70;;
25057;SDS011;13057;50.978;11.034;2022-07-24T03:49:16;4.93;;;3.22;;
25057;SDS011;13057;50.978;11.034;2022-07-24T03:51:42;5.65;;;2.90;;
25057;SDS011;13057;50.978;11.034;2022-07-24T03:54:08;5.47;;;3.05;;
25057;SDS011;13057;50.978;11.034;2022-07-24T03:56:33;6.70;;;3.00;;
25057;SDS011;13057;50.978;11.034;2022-07-24T03:58:59;5.13;;;3.15;;
25057;SDS011;13057;50.978;11.034;2022-07-24T04:01:26;3.55;;;2.80;;
25057;SDS011;13057;50.978;11.034;2022-07-24T04:03:51;7.80;;;3.33;;
25057;SDS011;13057;50.978;11.034;2022-07-24T04:06:17;7.13;;;3.30;;
25057;SDS011;13057;50.978;11.034;2022-07-24T04:08:43;3.72;;;3.13;;
25057;SDS011;13057;50.978;11.034;2022-07-24T04:11:10;4.55;;;3.45;;
25057;SDS011;13057;50.978;11.034;2022-07-24T04:13:36;5.63;;;3.30;;
25057;SDS011;13057;50.978;11.034;2022-07-24T04:16:02;3.95;;;3.22;;
25057;SDS011;13057;50.978;11.034;2022-07-24T04:18:28;4.82;;;3.55;;
25057;SDS011;13057;50.978;11.034;2022-07-24T04:20:54;3.13;;;2.63;;
25057;SDS011;13057;50.978;11.034;2022-07-24T04:23:20;6.80;;;3.30;;
25057;SDS011;13057;50.978;11.034;2022-07-24T04:25:46;4.45;;;2.78;;
25057;SDS011;13057;50.978;11.034;2022-07-24T04:28:12;5.65;;;3.55;;
25057;SDS011;13057;50.978;11.034;2022-07-24T04:30:38;3.70;;;2.83;;
25057;SDS011;13057;50.978;11.034;2022-07-24T04:33:04;15.10;;;3.50;;
25057;SDS011;13057;50.978;11.034;2022-07-24T04:35:30;6.05;;;3.00;;
25057;SDS011;13057;50.978;11.034;2022-07-24T04:37:56;4.13;;;3.03;;
25057;SDS011;13057;50.978;11.034;2022-07-24T04:40:22;4.05;;;2.80;;
25057;SDS011;13057;50.978;11.034;2022-07-24T04:42:48;4.07;;;3.20;;
25057;SDS011;13057;50.978;11.034;2022-07-24T04:45:13;9.98;;;3.47;;
25057;SDS011;13057;50.978;11.034;2022-07-24T04:47:39;5.60;;;2.97;;
25057;SDS011;13057;50.978;11.034;2022-07-24T04:50:06;5.40;;;3.78;;
25057;SDS011;13057;50.978;11.034;2022-07-24T04:52:33;6.95;;;3.00;;
25057;SDS011;13057;50.978;11.034;2022-07-24T04:54:59;4.88;;;3.08;;
25057;SDS011;13057;50.978;11.034;2022-07-24T04:57:25;4.38;;;3.10;;
25057;SDS011;13057;50.978;11.034;2022-07-24T04:59:50;4.63;;;2.90;;
25057;SDS011;13057;50.978;11.034;2022-07-24T05:02:16;4.15;;;3.08;;
25057;SDS011;13057;50.978;11.034;2022-07-24T05:04:42;4.75;;;3.28;;
25057;SDS011;13057;50.978;11.034;2022-07-24T05:07:08;4.85;;;3.00;;
25057;SDS011;13057;50.978;11.034;2022-07-24T05:09:34;3.35;;;2.70;;
25057;SDS011;13057;50.978;11.034;2022-07-24T05:12:00;7.95;;;2.90;;
25057;SDS011;13057;50.978;11.034;2022-07-24T05:14:25;4.40;;;2.72;;
25057;SDS011;13057;50.978;11.034;2022-07-24T05:16:51;5.63;;;2.88;;
25057;SDS011;13057;50.978;11.034;2022-07-24T05:19:17;6.38;;;3.13;;
25057;SDS011;13057;50.978;11.034;2022-07-24T05:21:43;9.52;;;2.75;;
25057;SDS011;13057;50.978;11.034;2022-07-24T05:24:09;4.22;;;2.60;;
25057;SDS011;13057;50.978;11.034;2022-07-24T05:26:34;5.53;;;2.50;;
25057;SDS011;13057;50.978;11.034;2022-07-24T05:29:01;3.28;;;2.60;;
25057;SDS011;13057;50.978;11.034;2022-07-24T05:31:28;3.90;;;2.70;;
25057;SDS011;13057;50.978;11.034;2022-07-24T05:33:54;3.85;;;2.70;;
25057;SDS011;13057;50.978;11.034;2022-07-24T05:36:20;3.15;;;2.38;;
25057;SDS011;13057;50.978;11.034;2022-07-24T05:38:46;3.67;;;2.50;;
25057;SDS011;13057;50.978;11.034;2022-07-24T05:41:13;6.30;;;2.40;;
25057;SDS011;13057;50.978;11.034;2022-07-24T05:43:38;2.40;;;2.15;;
25057;SDS011;13057;50.978;11.034;2022-07-24T05:46:04;3.45;;;2.25;;
25057;SDS011;13057;50.978;11.034;2022-07-24T05:48:30;3.28;;;2.00;;
25057;SDS011;13057;50.978;11.034;2022-07-24T05:50:57;3.92;;;2.25;;
25057;SDS011;13057;50.978;11.034;2022-07-24T05:53:23;4.20;;;2.10;;
25057;SDS011;13057;50.978;11.034;2022-07-24T05:55:49;2.63;;;1.92;;
25057;SDS011;13057;50.978;11.034;2022-07-24T05:58:15;4.28;;;1.75;;
25057;SDS011;13057;50.978;11.034;2022-07-24T06:00:42;3.78;;;2.08;;
25057;SDS011;13057;50.978;11.034;2022-07-24T06:03:08;3.08;;;2.40;;
25057;SDS011;13057;50.978;11.034;2022-07-24T06:05:34;6.00;;;1.95;;
25057;SDS011;13057;50.978;11.034;2022-07-24T06:08:00;3.05;;;2.50;;
25057;SDS011;13057;50.978;11.034;2022-07-24T06:10:26;6.70;;;2.10;;
25057;SDS011;13057;50.978;11.034;2022-07-24T06:12:52;3.38;;;2.15;;
25057;SDS011;13057;50.978;11.034;2022-07-24T06:15:18;4.97;;;2.63;;
25057;SDS011;13057;50.978;11.034;2022-07-24T06:17:44;5.03;;;2.30;;
25057;SDS011;13057;50.978;11.034;2022-07-24T06:20:11;5.10;;;2.08;;
25057;SDS011;13057;50.978;11.034;2022-07-24T06:22:38;3.90;;;2.47;;
25057;SDS011;13057;50.978;11.034;2022-07-24T06:25:05;3.22;;;2.20;;
25057;SDS011;13057;50.978;11.034;2022-07-24T06:27:31;3.40;;;2.10;;
25057;SDS011;13057;50.978;11.034;2022-07-24T06:29:57;3.13;;;2.10;;
25057;SDS011;13057;50.978;11.034;2022-07-24T06:32:23;3.10;;;2.00;;
25057;SDS011;13057;50.978;11.034;2022-07-24T06:34:49;2.45;;;2.22;;
25057;SDS011;13057;50.978;11.034;2022-07-24T06:37:15;3.80;;;2.00;;
25057;SDS011;13057;50.978;11.034;2022-07-24T06:39:41;2.72;;;2.00;;
25057;SDS011;13057;50.978;11.034;2022-07-24T06:42:07;4.78;;;2.33;;
25057;SDS011;13057;50.978;11.034;2022-07-24T06:44:33;2.58;;;2.00;;
25057;SDS011;13057;50.978;11.034;2022-07-24T06:47:01;5.15;;;2.40;;
25057;SDS011;13057;50.978;11.034;2022-07-24T06:49:27;3.28;;;2.33;;
25057;SDS011;13057;50.978;11.034;2022-07-24T06:51:53;3.35;;;2.15;;
25057;SDS011;13057;50.978;11.034;2022-07-24T06:54:18;3.50;;;2.20;;
25057;SDS011;13057;50.978;11.034;2022-07-24T06:56:44;4.63;;;2.53;;
25057;SDS011;13057;50.978;11.034;2022-07-24T06:59:10;3.28;;;2.17;;
25057;SDS011;13057;50.978;11.034;2022-07-24T07:01:36;4.07;;;2.33;;
25057;SDS011;13057;50.978;11.034;2022-07-24T07:04:02;4.03;;;2.25;;
25057;SDS011;13057;50.978;11.034;2022-07-24T07:06:27;4.63;;;2.70;;
25057;SDS011;13057;50.978;11.034;2022-07-24T07:08:53;6.75;;;2.67;;
25057;SDS011;13057;50.978;11.034;2022-07-24T07:11:19;3.70;;;2.90;;
25057;SDS011;13057;50.978;11.034;2022-07-24T07:13:45;3.92;;;2.42;;
25057;SDS011;13057;50.978;11.034;2022-07-24T07:16:14;5.15;;;2.90;;
25057;SDS011;13057;50.978;11.034;2022-07-24T07:18:40;3.97;;;3.15;;
25057;SDS011;13057;50.978;11.034;2022-07-24T07:21:07;3.30;;;2.70;;
25057;SDS011;13057;50.978;11.034;2022-07-24T07:23:33;5.07;;;3.22;;
25057;SDS011;13057;50.978;11.034;2022-07-24T07:25:59;12.32;;;2.70;;
25057;SDS011;13057;50.978;11.034;2022-07-24T07:28:24;5.15;;;2.65;;
25057;SDS011;13057;50.978;11.034;2022-07-24T07:30:53;2.85;;;2.40;;
25057;SDS011;13057;50.978;11.034;2022-07-24T07:33:19;3.15;;;2.25;;
25057;SDS011;13057;50.978;11.034;2022-07-24T07:35:45;4.93;;;2.15;;
25057;SDS011;13057;50.978;11.034;2022-07-24T07:38:11;3.08;;;2.10;;
25057;SDS011;13057;50.978;11.034;2022-07-24T07:40:37;3.25;;;2.17;;
25057;SDS011;13057;50.978;11.034;2022-07-24T07:43:03;2.55;;;1.80;;
25057;SDS011;13057;50.978;11.034;2022-07-24T07:45:30;9.15;;;2.10;;
25057;SDS011;13057;50.978;11.034;2022-07-24T07:47:58;1.98;;;1.60;;
25057;SDS011;13057;50.978;11.034;2022-07-24T07:50:24;5.65;;;1.83;;
25057;SDS011;13057;50.978;11.034;2022-07-24T07:52:49;3.17;;;2.00;;
25057;SDS011;13057;50.978;11.034;2022-07-24T07:55:15;3.97;;;1.75;;
25057;SDS011;13057;50.978;11.034;2022-07-24T07:57:41;3.17;;;1.77;;
25057;SDS011;13057;50.978;11.034;2022-07-24T08:00:08;4.68;;;1.75;;
25057;SDS011;13057;50.978;11.034;2022-07-24T08:02:36;2.05;;;1.70;;
25057;SDS011;13057;50.978;11.034;2022-07-24T08:05:02;4.53;;;2.00;;
25057;SDS011;13057;50.978;11.034;2022-07-24T08:07:28;3.15;;;2.05;;
25057;SDS011;13057;50.978;11.034;2022-07-24T08:09:54;6.32;;;2.03;;
25057;SDS011;13057;50.978;11.034;2022-07-24T08:12:20;4.60;;;1.75;;
25057;SDS011;13057;50.978;11.034;2022-07-24T08:14:45;3.47;;;1.80;;
25057;SDS011;13057;50.978;11.034;2022-07-24T08:17:11;2.65;;;1.85;;
25057;SDS011;13057;50.978;11.034;2022-07-24T08:19:38;2.03;;;1.70;;
25057;SDS011;13057;50.978;11.034;2022-07-24T08:22:04;5.93;;;2.00;;
25057;SDS011;13057;50.978;11.034;2022-07-24T08:24:30;6.82;;;1.98;;
25057;SDS011;13057;50.978;11.034;2022-07-24T08:26:57;3.50;;;2.40;;
25057;SDS011;13057;50.978;11.034;2022-07-24T08:29:24;2.58;;;1.65;;
25057;SDS011;13057;50.978;11.034;2022-07-24T08:31:51;6.18;;;4.18;;
25057;SDS011;13057;50.978;11.034;2022-07-24T08:34:17;6.13;;;3.13;;
25057;SDS011;13057;50.978;11.034;2022-07-24T08:36:43;2.70;;;2.17;;
25057;SDS011;13057;50.978;11.034;2022-07-24T08:39:13;2.55;;;2.33;;
25057;SDS011;13057;50.978;11.034;2022-07-24T08:41:42;3.28;;;2.05;;
25057;SDS011;13057;50.978;11.034;2022-07-24T08:44:09;4.97;;;2.55;;
25057;SDS011;13057;50.978;11.034;2022-07-24T08:46:36;4.43;;;2.10;;
25057;SDS011;13057;50.978;11.034;2022-07-24T08:49:06;3.67;;;2.30;;
25057;SDS011;13057;50.978;11.034;2022-07-24T08:51:35;2.85;;;2.47;;
25057;SDS011;13057;50.978;11.034;2022-07-24T08:54:03;5.40;;;2.67;;
25057;SDS011;13057;50.978;11.034;2022-07-24T08:56:29;4.47;;;3.00;;
25057;SDS011;13057;50.978;11.034;2022-07-24T08:58:55;2.85;;;2.00;;
25057;SDS011;13057;50.978;11.034;2022-07-24T09:01:21;4.25;;;2.30;;
25057;SDS011;13057;50.978;11.034;2022-07-24T09:03:47;6.78;;;2.30;;
25057;SDS011;13057;50.978;11.034;2022-07-24T09:06:14;3.88;;;2.50;;
25057;SDS011;13057;50.978;11.034;2022-07-24T09:08:41;4.43;;;3.00;;
25057;SDS011;13057;50.978;11.034;2022-07-24T09:11:08;4.60;;;2.75;;
25057;SDS011;13057;50.978;11.034;2022-07-24T09:13:35;4.10;;;2.70;;
25057;SDS011;13057;50.978;11.034;2022-07-24T09:16:16;4.82;;;2.55;;
25057;SDS011;13057;50.978;11.034;2022-07-24T09:18:49;3.45;;;2.78;;
25057;SDS011;13057;50.978;11.034;2022-07-24T09:21:16;3.22;;;2.45;;
25057;SDS011;13057;50.978;11.034;2022-07-24T09:23:43;3.03;;;2.42;;
25057;SDS011;13057;50.978;11.034;2022-07-24T09:26:10;5.40;;;2.65;;
25057;SDS011;13057;50.978;11.034;2022-07-24T09:28:48;3.65;;;2.47;;
25057;SDS011;13057;50.978;11.034;2022-07-24T09:31:15;4.65;;;2.63;;
25057;SDS011;13057;50.978;11.034;2022-07-24T09:33:42;2.65;;;2.10;;
25057;SDS011;13057;50.978;11.034;2022-07-24T09:36:12;6.47;;;2.67;;
25057;SDS011;13057;50.978;11.034;2022-07-24T09:38:39;3.53;;;2.67;;
25057;SDS011;13057;50.978;11.034;2022-07-24T09:41:11;8.88;;;2.42;;
25057;SDS011;13057;50.978;11.034;2022-07-24T09:43:43;2.83;;;2.42;;
25057;SDS011;13057;50.978;11.034;2022-07-24T09:46:10;4.25;;;2.35;;
25057;SDS011;13057;50.978;11.034;2022-07-24T09:48:37;4.20;;;2.50;;
25057;SDS011;13057;50.978;11.034;2022-07-24T09:51:05;4.90;;;2.92;;
25057;SDS011;13057;50.978;11.034;2022-07-24T09:53:37;4.47;;;2.72;;
25057;SDS011;13057;50.978;11.034;2022-07-24T09:56:06;3.30;;;2.55;;
25057;SDS011;13057;50.978;11.034;2022-07-24T09:58:36;4.93;;;2.30;;
25057;SDS011;13057;50.978;11.034;2022-07-24T10:01:04;5.57;;;2.70;;
25057;SDS011;13057;50.978;11.034;2022-07-24T10:03:33;6.32;;;2.63;;
25057;SDS011;13057;50.978;11.034;2022-07-24T10:06:03;3.25;;;2.60;;
25057;SDS011;13057;50.978;11.034;2022-07-24T10:08:31;5.13;;;2.45;;
25057;SDS011;13057;50.978;11.034;2022-07-24T10:10:58;3.85;;;2.65;;
25057;SDS011;13057;50.978;11.034;2022-07-24T10:13:25;5.20;;;2.55;;
25057;SDS011;13057;50.978;11.034;2022-07-24T10:18:51;6.03;;;2.80;;
25057;SDS011;13057;50.978;11.034;2022-07-24T10:21:21;4.13;;;2.50;;
25057;SDS011;13057;50.978;11.034;2022-07-24T10:23:58;3.30;;;2.70;;
25057;SDS011;13057;50.978;11.034;2022-07-24T10:26:43;4.55;;;2.85;;
25057;SDS011;13057;50.978;11.034;2022-07-24T10:29:11;9.07;;;2.65;;
25057;SDS011;13057;50.978;11.034;2022-07-24T10:31:41;3.47;;;2.47;;
25057;SDS011;13057;50.978;11.034;2022-07-24T10:34:16;3.92;;;2.70;;
25057;SDS011;13057;50.978;11.034;2022-07-24T10:36:54;4.72;;;3.05;;
25057;SDS011;13057;50.978;11.034;2022-07-24T10:39:44;5.95;;;2.80;;
25057;SDS011;13057;50.978;11.034;2022-07-24T10:42:24;3.40;;;2.67;;
25057;SDS011;13057;50.978;11.034;2022-07-24T10:47:41;3.83;;;2.38;;
25057;SDS011;13057;50.978;11.034;2022-07-24T10:50:08;4.40;;;2.70;;
25057;SDS011;13057;50.978;11.034;2022-07-24T10:52:34;4.63;;;2.90;;
25057;SDS011;13057;50.978;11.034;2022-07-24T10:57:50;3.05;;;2.33;;
25057;SDS011;13057;50.978;11.034;2022-07-24T11:00:25;4.57;;;3.17;;
25057;SDS011;13057;50.978;11.034;2022-07-24T11:03:01;3.15;;;2.20;;
25057;SDS011;13057;50.978;11.034;2022-07-24T11:05:31;4.73;;;2.47;;
25057;SDS011;13057;50.978;11.034;2022-07-24T11:10:47;3.30;;;2.55;;
25057;SDS011;13057;50.978;11.034;2022-07-24T11:13:38;4.03;;;2.35;;
25057;SDS011;13057;50.978;11.034;2022-07-24T11:16:18;4.70;;;2.92;;
25057;SDS011;13057;50.978;11.034;2022-07-24T11:22:01;3.65;;;2.92;;
25057;SDS011;13057;50.978;11.034;2022-07-24T11:24:28;3.80;;;3.03;;
25057;SDS011;13057;50.978;11.034;2022-07-24T11:26:58;3.72;;;2.72;;
25057;SDS011;13057;50.978;11.034;2022-07-24T11:29:29;3.15;;;2.72;;
25057;SDS011;13057;50.978;11.034;2022-07-24T11:32:00;4.15;;;2.88;;
25057;SDS011;13057;50.978;11.034;2022-07-24T11:34:29;3.53;;;1.83;;
25057;SDS011;13057;50.978;11.034;2022-07-24T11:36:56;1.65;;;1.40;;
25057;SDS011;13057;50.978;11.034;2022-07-24T11:39:27;2.33;;;1.60;;
25057;SDS011;13057;50.978;11.034;2022-07-24T11:41:57;5.18;;;2.63;;
25057;SDS011;13057;50.978;11.034;2022-07-24T11:44:26;3.90;;;2.90;;
25057;SDS011;13057;50.978;11.034;2022-07-24T11:46:55;2.67;;;2.47;;
25057;SDS011;13057;50.978;11.034;2022-07-24T11:49:23;2.33;;;1.77;;
25057;SDS011;13057;50.978;11.034;2022-07-24T11:51:51;1.60;;;1.40;;
25057;SDS011;13057;50.978;11.034;2022-07-24T11:54:23;1.60;;;1.38;;
25057;SDS011;13057;50.978;11.034;2022-07-24T11:56:51;5.03;;;3.15;;
25057;SDS011;13057;50.978;11.034;2022-07-24T11:59:25;7.03;;;2.90;;
25057;SDS011;13057;50.978;11.034;2022-07-24T12:01:54;3.85;;;2.90;;
25057;SDS011;13057;50.978;11.034;2022-07-24T12:04:26;5.53;;;2.80;;
25057;SDS011;13057;50.978;11.034;2022-07-24T12:06:52;1.67;;;1.38;;
25057;SDS011;13057;50.978;11.034;2022-07-24T12:09:18;1.98;;;1.40;;
25057;SDS011;13057;50.978;11.034;2022-07-24T12:11:44;4.45;;;1.70;;
25057;SDS011;13057;50.978;11.034;2022-07-24T12:14:14;5.10;;;2.95;;
25057;SDS011;13057;50.978;11.034;2022-07-24T12:16:42;2.10;;;1.90;;
25057;SDS011;13057;50.978;11.034;2022-07-24T12:19:13;4.50;;;2.80;;
25057;SDS011;13057;50.978;11.034;2022-07-24T12:24:07;4.30;;;2.88;;
25057;SDS011;13057;50.978;11.034;2022-07-24T12:26:33;3.65;;;2.65;;
25057;SDS011;13057;50.978;11.034;2022-07-24T12:29:12;2.20;;;1.70;;
25057;SDS011;13057;50.978;11.034;2022-07-24T12:31:38;1.75;;;1.60;;
25057;SDS011;13057;50.978;11.034;2022-07-24T12:34:04;4.93;;;2.80;;
25057;SDS011;13057;50.978;11.034;2022-07-24T12:36:30;4.13;;;2.85;;
25057;SDS011;13057;50.978;11.034;2022-07-24T12:38:56;5.50;;;3.03;;
25057;SDS011;13057;50.978;11.034;2022-07-24T12:41:23;3.10;;;2.60;;
25057;SDS011;13057;50.978;11.034;2022-07-24T12:43:55;4.90;;;3.00;;
25057;SDS011;13057;50.978;11.034;2022-07-24T12:46:30;4.43;;;2.72;;
25057;SDS011;13057;50.978;11.034;2022-07-24T12:48:59;5.63;;;2.50;;
25057;SDS011;13057;50.978;11.034;2022-07-24T12:54:14;5.40;;;2.58;;
25057;SDS011;13057;50.978;11.034;2022-07-24T12:56:42;3.42;;;2.58;;
25057;SDS011;13057;50.978;11.034;2022-07-24T12:59:08;3.45;;;2.90;;
25057;SDS011;13057;50.978;11.034;2022-07-24T13:01:45;2.78;;;1.65;;
25057;SDS011;13057;50.978;11.034;2022-07-24T13:04:13;1.83;;;1.40;;
25057;SDS011;13057;50.978;11.034;2022-07-24T13:06:43;2.08;;;1.85;;
25057;SDS011;13057;50.978;11.034;2022-07-24T13:09:11;1.90;;;1.60;;
25057;SDS011;13057;50.978;11.034;2022-07-24T13:11:38;4.03;;;2.92;;
25057;SDS011;13057;50.978;11.034;2022-07-24T13:14:06;4.47;;;2.97;;
25057;SDS011;13057;50.978;11.034;2022-07-24T13:16:34;4.43;;;2.30;;
25057;SDS011;13057;50.978;11.034;2022-07-24T13:19:02;1.50;;;1.40;;
25057;SDS011;13057;50.978;11.034;2022-07-24T13:21:28;2.70;;;1.40;;
25057;SDS011;13057;50.978;11.034;2022-07-24T13:23:54;5.22;;;2.70;;
25057;SDS011;13057;50.978;11.034;2022-07-24T13:26:20;5.43;;;2.70;;
25057;SDS011;13057;50.978;11.034;2022-07-24T13:28:47;2.65;;;2.28;;
25057;SDS011;13057;50.978;11.034;2022-07-24T13:31:14;2.53;;;1.50;;
25057;SDS011;13057;50.978;11.034;2022-07-24T13:33:40;5.32;;;2.45;;
25057;SDS011;13057;50.978;11.034;2022-07-24T13:36:06;2.70;;;2.30;;
25057;SDS011;13057;50.978;11.034;2022-07-24T13:38:32;1.92;;;1.48;;
25057;SDS011;13057;50.978;11.034;2022-07-24T13:40:58;1.60;;;1.45;;
25057;SDS011;13057;50.978;11.034;2022-07-24T13:43:24;4.57;;;2.80;;
25057;SDS011;13057;50.978;11.034;2022-07-24T13:45:51;5.43;;;2.97;;
25057;SDS011;13057;50.978;11.034;2022-07-24T13:48:17;5.28;;;2.72;;
25057;SDS011;13057;50.978;11.034;2022-07-24T13:50:43;2.00;;;1.67;;
25057;SDS011;13057;50.978;11.034;2022-07-24T13:53:09;1.40;;;1.20;;
25057;SDS011;13057;50.978;11.034;2022-07-24T13:55:35;3.65;;;2.70;;
25057;SDS011;13057;50.978;11.034;2022-07-24T13:58:01;5.68;;;3.17;;
25057;SDS011;13057;50.978;11.034;2022-07-24T14:00:27;1.80;;;1.50;;
25057;SDS011;13057;50.978;11.034;2022-07-24T14:02:53;2.33;;;1.58;;
25057;SDS011;13057;50.978;11.034;2022-07-24T14:05:21;1.63;;;1.50;;
25057;SDS011;13057;50.978;11.034;2022-07-24T14:07:50;1.73;;;1.30;;
25057;SDS011;13057;50.978;11.034;2022-07-24T14:10:16;1.42;;;1.30;;
25057;SDS011;13057;50.978;11.034;2022-07-24T14:12:43;4.70;;;3.20;;
25057;SDS011;13057;50.978;11.034;2022-07-24T14:15:09;3.63;;;2.85;;
25057;SDS011;13057;50.978;11.034;2022-07-24T14:17:38;7.35;;;3.30;;
25057;SDS011;13057;50.978;11.034;2022-07-24T14:20:04;6.07;;;2.78;;
25057;SDS011;13057;50.978;11.034;2022-07-24T14:22:32;4.63;;;2.72;;
25057;SDS011;13057;50.978;11.034;2022-07-24T14:25:00;3.55;;;2.40;;
25057;SDS011;13057;50.978;11.034;2022-07-24T14:27:27;1.60;;;1.27;;
25057;SDS011;13057;50.978;11.034;2022-07-24T14:29:53;4.15;;;1.92;;
25057;SDS011;13057;50.978;11.034;2022-07-24T14:32:19;2.10;;;1.48;;
25057;SDS011;13057;50.978;11.034;2022-07-24T14:34:45;5.70;;;3.00;;
25057;SDS011;13057;50.978;11.034;2022-07-24T14:37:11;2.78;;;1.77;;
25057;SDS011;13057;50.978;11.034;2022-07-24T14:39:37;4.22;;;3.15;;
25057;SDS011;13057;50.978;11.034;2022-07-24T14:42:03;3.20;;;2.58;;
25057;SDS011;13057;50.978;11.034;2022-07-24T14:44:30;4.82;;;2.65;;
25057;SDS011;13057;50.978;11.034;2022-07-24T14:46:56;3.15;;;2.45;;
25057;SDS011;13057;50.978;11.034;2022-07-24T14:49:23;3.47;;;3.17;;
25057;SDS011;13057;50.978;11.034;2022-07-24T14:51:49;3.80;;;2.92;;